Terminal Aerodrome Forecast
Issued by NWS Sterling, VA

Current Version | Previous Version | Graphics & Text | Print | Product List | Glossary On
Versions: 1 2 3 4 5 6 7 8 9 10 11 12 13 14 15 16
216
FTUS41 KLWX 120525
TAFMRB
TAF
KMRB 120525Z 1206/1306 16006KT P6SM OVC090 WS020/21040KT
     FM121100 20006KT P6SM BKN110
     FM121400 24008KT P6SM BKN080
     FM121600 27013G21KT P6SM BKN050
     FM122000 29018G28KT P6SM BKN045=

USA.gov is the U.S. government's official web portal to all federal, state and local government web resources and services.